Time;durP1;ratioP1;P1;durP2;ratioP2;P2;SDS_P1;SDS_P2;PMS_P1;PMS_P2;Temp;Humidity;BMP_temperature;BMP_pressure;BME280_temperature;BME280_humidity;BME280_pressure;Samples;Min_cycle;Max_cycle;Signal;HPM_P1;HPM_P2
2021/03/20 00:00:10;;;;;;;9.90;5.15;;;8.90;99.90;;;;;;4997216;28;20050;-86
2021/03/20 00:02:37;;;;;;;9.05;5.63;;;8.90;99.90;;;;;;4997367;28;20356;-86
2021/03/20 00:05:04;;;;;;;7.53;4.75;;;8.90;99.90;;;;;;4997044;28;20054;-86
2021/03/20 00:07:31;;;;;;;7.65;4.90;;;8.90;99.90;;;;;;4995785;28;20065;-87
2021/03/20 00:09:57;;;;;;;7.50;4.85;;;8.90;99.90;;;;;;4997307;28;20054;-86
2021/03/20 00:12:24;;;;;;;8.15;5.35;;;8.90;99.90;;;;;;4996761;28;20061;-84
2021/03/20 00:14:50;;;;;;;10.45;4.65;;;8.90;99.90;;;;;;4996867;28;20050;-84
2021/03/20 00:17:18;;;;;;;7.97;5.28;;;8.90;99.90;;;;;;4996933;28;20046;-86
2021/03/20 00:19:45;;;;;;;8.07;5.28;;;8.90;99.90;;;;;;4996750;28;20050;-85
2021/03/20 00:22:11;;;;;;;8.40;4.93;;;8.90;99.90;;;;;;4996577;28;20081;-85
2021/03/20 00:24:38;;;;;;;7.65;4.50;;;8.80;99.90;;;;;;4996771;28;20054;-85
2021/03/20 00:27:04;;;;;;;9.90;5.07;;;8.80;99.90;;;;;;4996703;28;20056;-84
2021/03/20 00:29:31;;;;;;;7.95;4.68;;;8.80;99.90;;;;;;4996659;28;20046;-85
2021/03/20 00:31:57;;;;;;;10.70;6.20;;;8.80;99.90;;;;;;4996621;28;20490;-85
2021/03/20 00:34:25;;;;;;;8.60;4.88;;;8.80;99.90;;;;;;4996959;28;20076;-88
2021/03/20 00:36:52;;;;;;;9.80;5.28;;;8.80;99.90;;;;;;4996608;28;20050;-89
2021/03/20 00:39:18;;;;;;;8.18;4.60;;;8.80;99.90;;;;;;4996342;28;20376;-87
2021/03/20 00:41:45;;;;;;;8.60;5.03;;;8.80;99.90;;;;;;4996248;28;20145;-88
2021/03/20 00:44:11;;;;;;;7.25;3.42;;;8.80;99.90;;;;;;4996495;28;20046;-86
2021/03/20 00:46:38;;;;;;;7.97;4.95;;;8.80;99.90;;;;;;4996247;28;20060;-88
2021/03/20 00:49:05;;;;;;;6.35;4.18;;;8.80;99.90;;;;;;4996347;28;20046;-88
2021/03/20 00:51:32;;;;;;;7.55;4.75;;;8.80;99.90;;;;;;4996109;28;20046;-87
2021/03/20 00:53:59;;;;;;;8.95;5.53;;;8.80;99.90;;;;;;4996182;28;20064;-87
2021/03/20 00:56:25;;;;;;;7.68;4.80;;;8.80;99.90;;;;;;4995831;28;20046;-89
2021/03/20 00:58:52;;;;;;;10.20;5.22;;;8.80;99.90;;;;;;4995963;28;20080;-87
2021/03/20 01:01:21;;;;;;;7.70;4.90;;;8.80;99.90;;;;;;4996161;28;20062;-87
2021/03/20 01:03:48;;;;;;;12.18;4.90;;;8.80;99.90;;;;;;4996027;28;20502;-86
2021/03/20 01:06:17;;;;;;;9.82;4.70;;;8.80;99.90;;;;;;4996318;28;20076;-86
2021/03/20 01:08:44;;;;;;;8.98;5.22;;;8.80;99.90;;;;;;4996175;28;20054;-87
2021/03/20 01:11:11;;;;;;;15.38;5.88;;;8.80;99.90;;;;;;4995759;28;20054;-87
2021/03/20 01:13:38;;;;;;;10.10;5.70;;;8.80;99.90;;;;;;4995851;28;20050;-88
2021/03/20 01:16:05;;;;;;;13.73;6.68;;;8.80;99.90;;;;;;4995853;28;20356;-86
2021/03/20 01:18:32;;;;;;;11.02;5.68;;;8.80;99.90;;;;;;4995730;28;20046;-86
2021/03/20 01:20:58;;;;;;;14.65;6.57;;;8.80;99.90;;;;;;4995837;28;20402;-85
2021/03/20 01:23:25;;;;;;;9.75;5.45;;;8.80;99.90;;;;;;4995503;28;20054;-87
2021/03/20 01:25:52;;;;;;;9.70;5.50;;;8.80;99.90;;;;;;4995648;28;20364;-86
2021/03/20 01:28:21;;;;;;;9.90;5.75;;;8.80;99.90;;;;;;4995853;28;20050;-87
2021/03/20 01:30:47;;;;;;;8.52;4.78;;;8.80;99.90;;;;;;4995589;28;20061;-87
2021/03/20 01:33:14;;;;;;;10.10;6.18;;;8.80;99.90;;;;;;4995819;28;20065;-88
2021/03/20 01:35:40;;;;;;;10.43;5.80;;;8.80;99.90;;;;;;4995560;28;20053;-88
2021/03/20 01:38:07;;;;;;;11.43;6.13;;;8.80;99.90;;;;;;4995633;28;20050;-88
2021/03/20 01:40:35;;;;;;;8.52;5.68;;;8.80;99.90;;;;;;4995384;28;20060;-85
2021/03/20 01:43:02;;;;;;;10.98;6.05;;;8.70;99.90;;;;;;4995251;28;20485;-85
2021/03/20 01:45:29;;;;;;;13.65;6.07;;;8.70;99.90;;;;;;4995384;28;20391;-85
2021/03/20 01:47:59;;;;;;;9.50;5.65;;;8.70;99.90;;;;;;4995520;28;20119;-85
2021/03/20 01:50:34;;;;;;;9.60;6.10;;;8.70;99.90;;;;;;4995085;28;20533;-86
2021/03/20 01:53:05;;;;;;;7.88;5.22;;;8.80;99.90;;;;;;4995430;28;20061;-86
2021/03/20 01:55:32;;;;;;;10.07;5.35;;;8.70;99.90;;;;;;4995485;28;20058;-87
2021/03/20 01:58:00;;;;;;;16.13;8.07;;;8.70;99.90;;;;;;4995391;28;20477;-88
2021/03/20 02:00:35;;;;;;;11.45;7.45;;;8.70;99.90;;;;;;4995689;28;20133;-87
2021/03/20 02:03:02;;;;;;;10.18;5.82;;;8.70;99.90;;;;;;4995605;28;20050;-86
2021/03/20 02:05:30;;;;;;;9.38;5.43;;;8.70;99.90;;;;;;4994774;28;20058;-87
2021/03/20 02:07:57;;;;;;;10.57;5.97;;;8.70;99.90;;;;;;4994711;28;20053;-88
2021/03/20 02:10:23;;;;;;;10.25;5.47;;;8.70;99.90;;;;;;4994837;28;20050;-88
2021/03/20 02:13:01;;;;;;;9.30;5.70;;;8.70;99.90;;;;;;4995024;28;20111;-87
2021/03/20 02:15:32;;;;;;;10.35;6.05;;;8.80;99.90;;;;;;4994051;28;20057;-87
2021/03/20 02:18:03;;;;;;;8.68;4.88;;;8.70;99.90;;;;;;4995123;28;20046;-87
2021/03/20 02:21:02;;;;;;;11.80;5.57;;;8.70;99.90;;;;;;4995063;28;20046;-87
2021/03/20 02:24:05;;;;;;;9.55;5.80;;;8.70;99.90;;;;;;4991423;28;20074;-87
2021/03/20 02:27:03;;;;;;;12.68;6.50;;;8.70;99.90;;;;;;4995206;28;20119;-88
2021/03/20 02:29:53;;;;;;;10.77;6.07;;;8.70;99.90;;;;;;4994947;28;20076;-88
2021/03/20 02:32:40;;;;;;;13.63;6.95;;;8.70;99.90;;;;;;4968287;28;20054;-88
2021/03/20 02:35:08;;;;;;;10.10;6.72;;;8.70;99.90;;;;;;4994799;28;20065;-88
2021/03/20 02:37:38;;;;;;;12.50;6.93;;;8.70;99.90;;;;;;4995072;28;20464;-88
2021/03/20 02:40:07;;;;;;;12.85;7.10;;;8.70;99.90;;;;;;4994745;28;20487;-88
2021/03/20 02:42:35;;;;;;;11.82;6.95;;;8.70;99.90;;;;;;4994603;28;20141;-88
2021/03/20 02:45:05;;;;;;;15.10;8.65;;;8.70;99.90;;;;;;4994836;28;20058;-88
2021/03/20 02:47:35;;;;;;;14.85;7.80;;;8.70;99.90;;;;;;4994678;28;20046;-88
2021/03/20 02:50:04;;;;;;;16.25;8.57;;;8.70;99.90;;;;;;4994609;28;20100;-87
2021/03/20 02:52:33;;;;;;;17.67;8.68;;;8.70;99.90;;;;;;4994476;28;20069;-88
2021/03/20 02:55:03;;;;;;;15.82;7.80;;;8.70;99.90;;;;;;4994715;28;20050;-88
2021/03/20 02:57:32;;;;;;;14.30;8.60;;;8.70;99.90;;;;;;4994724;28;20068;-88
2021/03/20 03:00:00;;;;;;;13.05;7.78;;;8.60;99.90;;;;;;4994568;28;20148;-88
2021/03/20 03:02:28;;;;;;;17.02;8.77;;;8.60;99.90;;;;;;4995033;28;20058;-88
2021/03/20 03:04:58;;;;;;;13.77;7.70;;;8.60;99.90;;;;;;4994608;28;20053;-88
2021/03/20 03:07:28;;;;;;;18.75;8.70;;;8.60;99.90;;;;;;4994495;28;20054;-88
2021/03/20 03:09:56;;;;;;;14.77;8.38;;;8.60;99.90;;;;;;4994849;28;20050;-88
2021/03/20 03:12:26;;;;;;;14.50;8.00;;;8.60;99.90;;;;;;4994504;28;20054;-88
2021/03/20 03:14:55;;;;;;;13.70;8.18;;;8.60;99.90;;;;;;4994867;28;20054;-88
2021/03/20 03:17:22;;;;;;;15.73;8.15;;;8.60;99.90;;;;;;4994490;28;20050;-88
2021/03/20 03:19:50;;;;;;;15.73;8.68;;;8.60;99.90;;;;;;4996203;28;20073;-89
2021/03/20 03:22:23;;;;;;;13.93;8.00;;;8.60;99.90;;;;;;4998107;28;20348;-88
2021/03/20 03:24:50;;;;;;;13.70;8.38;;;8.60;99.90;;;;;;4998206;28;20058;-89
2021/03/20 03:27:16;;;;;;;16.90;8.80;;;8.60;99.90;;;;;;4997926;28;20050;-88
2021/03/20 03:29:43;;;;;;;15.68;8.40;;;8.60;99.90;;;;;;4997949;28;20104;-88
2021/03/20 03:32:14;;;;;;;15.95;9.05;;;8.60;99.90;;;;;;4997856;28;20466;-88
2021/03/20 03:34:44;;;;;;;17.55;9.57;;;8.50;99.90;;;;;;4997776;28;20177;-88
2021/03/20 03:37:12;;;;;;;17.73;9.95;;;8.60;99.90;;;;;;4998062;28;20172;-88
2021/03/20 03:39:44;;;;;;;17.48;8.85;;;8.50;99.90;;;;;;4997940;28;20065;-88
2021/03/20 03:42:12;;;;;;;15.27;8.32;;;8.50;99.90;;;;;;4997595;28;20062;-87
2021/03/20 03:44:41;;;;;;;15.77;8.68;;;8.50;99.90;;;;;;4997690;28;20054;-88
2021/03/20 03:47:08;;;;;;;17.35;8.60;;;8.50;99.90;;;;;;4997674;28;20054;-88
2021/03/20 03:49:34;;;;;;;16.00;9.32;;;8.50;99.90;;;;;;4997490;28;20463;-88
2021/03/20 03:52:01;;;;;;;18.55;9.95;;;8.50;99.90;;;;;;4997336;28;20042;-88
2021/03/20 03:54:28;;;;;;;14.90;8.43;;;8.50;99.90;;;;;;4997553;28;20394;-87
2021/03/20 03:57:10;;;;;;;17.85;9.80;;;8.50;99.90;;;;;;4997718;28;20056;-88
2021/03/20 03:59:44;;;;;;;16.33;9.18;;;8.50;99.90;;;;;;4997346;28;20050;-88
2021/03/20 04:02:28;;;;;;;20.52;9.32;;;8.50;99.90;;;;;;4997721;28;20062;-88
2021/03/20 04:04:58;;;;;;;18.77;10.05;;;8.40;99.90;;;;;;4997538;28;20060;-88
2021/03/20 04:07:43;;;;;;;19.63;10.10;;;8.40;99.90;;;;;;4997438;28;20050;-88
2021/03/20 04:10:15;;;;;;;17.77;9.25;;;8.40;99.90;;;;;;4996972;28;20050;-88
2021/03/20 04:12:45;;;;;;;17.38;9.95;;;8.40;99.90;;;;;;4997347;28;20057;-87
2021/03/20 04:15:15;;;;;;;17.50;9.00;;;8.50;99.90;;;;;;4996990;28;20050;-87
2021/03/20 04:17:47;;;;;;;18.58;9.45;;;8.50;99.90;;;;;;4997355;28;20042;-88
2021/03/20 04:20:17;;;;;;;16.55;9.00;;;8.40;99.90;;;;;;4997191;28;20058;-88
2021/03/20 04:22:54;;;;;;;19.40;9.45;;;8.40;99.90;;;;;;4996704;28;20060;-87
2021/03/20 04:25:26;;;;;;;16.42;9.20;;;8.40;99.90;;;;;;4996902;28;20054;-88
2021/03/20 04:27:59;;;;;;;18.45;9.73;;;8.40;99.90;;;;;;4996774;28;20054;-88
2021/03/20 04:30:26;;;;;;;17.80;9.55;;;8.40;99.90;;;;;;4996195;28;20510;-87
2021/03/20 04:32:55;;;;;;;18.20;10.10;;;8.50;99.90;;;;;;4996611;28;20054;-87
2021/03/20 04:35:23;;;;;;;19.08;10.50;;;8.40;99.90;;;;;;4997017;28;20115;-87
2021/03/20 04:37:51;;;;;;;20.73;10.40;;;8.40;99.90;;;;;;4996757;28;20076;-87
2021/03/20 04:40:27;;;;;;;19.92;9.98;;;8.40;99.90;;;;;;4996702;28;20429;-88
2021/03/20 04:42:54;;;;;;;21.63;10.95;;;8.40;99.90;;;;;;4996639;28;20364;-88
2021/03/20 04:45:26;;;;;;;20.65;11.10;;;8.40;99.90;;;;;;4996547;28;20054;-89
2021/03/20 04:47:53;;;;;;;21.08;10.00;;;8.30;99.90;;;;;;4996402;28;20054;-88
2021/03/20 04:50:21;;;;;;;20.90;10.55;;;8.30;99.90;;;;;;4996522;28;20054;-88
2021/03/20 04:52:48;;;;;;;23.48;10.40;;;8.30;99.90;;;;;;4996452;28;20051;-88
2021/03/20 04:55:14;;;;;;;25.10;11.57;;;8.30;99.90;;;;;;4996707;28;20076;-87
2021/03/20 04:57:44;;;;;;;21.95;12.05;;;8.30;99.90;;;;;;4996174;28;20056;-88
2021/03/20 05:00:14;;;;;;;23.88;12.13;;;8.30;99.90;;;;;;4996414;28;20060;-88
2021/03/20 05:02:44;;;;;;;23.67;12.05;;;8.30;99.90;;;;;;4996298;28;20149;-88
2021/03/20 05:05:18;;;;;;;31.55;13.38;;;8.30;99.90;;;;;;4996413;28;20394;-89
2021/03/20 05:07:44;;;;;;;23.60;10.85;;;8.30;99.90;;;;;;4996099;28;20046;-88
2021/03/20 05:10:28;;;;;;;23.35;11.20;;;8.20;99.90;;;;;;4996132;28;20058;-88
2021/03/20 05:12:54;;;;;;;27.88;12.00;;;8.30;99.90;;;;;;4996131;28;20061;-88
2021/03/20 05:15:27;;;;;;;23.58;11.50;;;8.20;99.90;;;;;;4996320;28;20399;-88
2021/03/20 05:17:54;;;;;;;28.45;13.13;;;8.20;99.90;;;;;;4996416;28;20049;-87
2021/03/20 05:20:20;;;;;;;29.35;12.60;;;8.30;99.90;;;;;;4995915;28;20054;-89
2021/03/20 05:22:47;;;;;;;35.08;13.05;;;8.30;99.90;;;;;;4995729;28;20054;-87
2021/03/20 05:25:14;;;;;;;24.67;13.20;;;8.30;99.90;;;;;;4995850;28;20058;-88
2021/03/20 05:27:41;;;;;;;26.25;13.50;;;8.30;99.90;;;;;;4995592;28;20455;-87
2021/03/20 05:30:09;;;;;;;26.40;12.88;;;8.30;99.90;;;;;;4995626;28;20057;-87
2021/03/20 05:32:36;;;;;;;25.40;11.43;;;8.30;99.90;;;;;;4995610;28;20046;-87
2021/03/20 05:35:05;;;;;;;31.02;13.13;;;8.30;99.90;;;;;;4995730;28;20046;-87
2021/03/20 05:37:33;;;;;;;24.33;13.10;;;8.30;99.90;;;;;;4995626;28;20054;-87
2021/03/20 05:40:00;;;;;;;26.08;12.70;;;8.30;99.90;;;;;;4995405;28;20544;-87
2021/03/20 05:42:35;;;;;;;26.10;12.88;;;8.30;99.90;;;;;;4995165;28;20112;-87
2021/03/20 05:45:19;;;;;;;25.80;13.27;;;8.30;99.90;;;;;;4995766;28;20076;-88
2021/03/20 05:48:10;;;;;;;27.80;12.55;;;8.30;99.90;;;;;;4995382;28;20046;-89
2021/03/20 05:51:03;;;;;;;24.05;12.25;;;8.30;99.90;;;;;;4995358;28;20590;-89
2021/03/20 05:53:48;;;;;;;23.83;12.25;;;8.30;99.90;;;;;;4991706;28;20068;-88
2021/03/20 05:56:17;;;;;;;23.13;10.77;;;8.40;99.90;;;;;;4995539;28;20050;-88
2021/03/20 05:58:55;;;;;;;23.70;11.95;;;8.30;99.90;;;;;;4995352;28;20470;-88
2021/03/20 06:01:28;;;;;;;24.50;12.77;;;8.40;99.90;;;;;;4995294;28;20368;-88
2021/03/20 06:04:38;;;;;;;25.13;12.52;;;8.40;99.90;;;;;;4995335;28;20050;-88
2021/03/20 06:07:20;;;;;;;28.42;12.68;;;8.30;99.90;;;;;;4979877;28;20050;-88
2021/03/20 06:09:50;;;;;;;28.70;13.77;;;8.30;99.90;;;;;;4995305;28;20050;-88
2021/03/20 06:12:26;;;;;;;25.55;12.45;;;8.30;99.90;;;;;;4995096;28;20050;-88
2021/03/20 06:15:03;;;;;;;24.35;11.57;;;8.30;99.90;;;;;;4995246;28;20046;-88
2021/03/20 06:17:38;;;;;;;28.10;12.35;;;8.30;99.90;;;;;;4995125;28;20050;-88
2021/03/20 06:20:29;;;;;;;27.10;11.90;;;8.30;99.90;;;;;;4995486;28;20047;-88
2021/03/20 06:23:23;;;;;;;25.13;13.23;;;8.30;99.90;;;;;;5004770;28;20061;-88
2021/03/20 06:25:57;;;;;;;27.10;12.93;;;8.30;99.90;;;;;;5014961;28;20068;-88
2021/03/20 06:28:26;;;;;;;30.10;15.47;;;8.30;99.90;;;;;;5014611;28;20075;-88
2021/03/20 06:30:56;;;;;;;37.90;17.77;;;8.30;99.90;;;;;;5014457;28;20046;-88
2021/03/20 06:33:25;;;;;;;31.15;15.32;;;8.30;99.90;;;;;;5014744;28;20054;-90
2021/03/20 06:35:54;;;;;;;33.78;14.23;;;8.30;99.90;;;;;;5014776;28;20057;-87
2021/03/20 06:38:32;;;;;;;26.63;12.93;;;8.30;99.90;;;;;;5014199;28;20049;-88
2021/03/20 06:41:02;;;;;;;32.70;14.73;;;8.30;99.90;;;;;;5014241;28;20364;-88
2021/03/20 06:43:32;;;;;;;34.05;16.02;;;8.30;99.90;;;;;;4994936;28;20101;-87
2021/03/20 06:45:59;;;;;;;38.95;17.80;;;8.30;99.90;;;;;;4995033;28;20054;-87
2021/03/20 06:48:29;;;;;;;38.25;16.60;;;8.30;99.90;;;;;;4994906;28;20470;-88
2021/03/20 06:50:57;;;;;;;40.10;18.27;;;8.30;99.90;;;;;;4995360;28;20046;-88
2021/03/20 06:53:36;;;;;;;36.08;16.35;;;8.30;99.90;;;;;;4994919;28;20383;-87
2021/03/20 06:56:04;;;;;;;36.53;16.80;;;8.40;99.90;;;;;;4998529;28;20058;-88
2021/03/20 06:58:32;;;;;;;41.95;18.15;;;8.40;99.90;;;;;;4998449;28;20467;-87
2021/03/20 07:00:59;;;;;;;34.00;16.13;;;8.40;99.90;;;;;;4998487;28;20046;-87
2021/03/20 07:04:04;;;;;;;36.15;16.38;;;8.40;99.90;;;;;;4998371;28;20375;-87
2021/03/20 07:06:34;;;;;;;32.20;15.13;;;8.40;99.90;;;;;;4977488;28;20053;-87
2021/03/20 07:09:01;;;;;;;31.30;15.45;;;8.40;99.90;;;;;;4998440;28;20104;-87
2021/03/20 07:11:29;;;;;;;31.88;15.18;;;8.50;99.90;;;;;;4998696;28;20066;-87
2021/03/20 07:13:58;;;;;;;32.92;14.77;;;8.50;99.90;;;;;;4998157;28;20478;-87
2021/03/20 07:16:25;;;;;;;31.80;15.63;;;8.50;99.90;;;;;;4998300;28;20097;-88
2021/03/20 07:18:52;;;;;;;34.20;15.15;;;8.50;99.90;;;;;;4998424;28;20043;-88
2021/03/20 07:21:37;;;;;;;30.80;14.00;;;8.50;99.90;;;;;;4997819;28;20068;-88
2021/03/20 07:24:05;;;;;;;;;;;8.60;99.90;;;;;;4998485;28;20060;-88
2021/03/20 07:26:32;;;;;;;28.50;11.52;;;8.60;99.90;;;;;;4998053;28;19922;-88
2021/03/20 07:29:01;;;;;;;26.00;12.65;;;8.60;99.90;;;;;;4997869;28;20072;-88
2021/03/20 07:31:29;;;;;;;25.55;12.48;;;8.60;99.90;;;;;;4997947;28;20046;-87
2021/03/20 07:33:56;;;;;;;27.02;13.00;;;8.60;99.90;;;;;;4997889;28;20050;-87
2021/03/20 07:36:30;;;;;;;23.30;12.65;;;8.60;99.90;;;;;;4997836;28;20050;-88
2021/03/20 07:39:26;;;;;;;25.77;12.25;;;8.70;99.90;;;;;;4998066;28;20046;-88
2021/03/20 07:41:56;;;;;;;26.38;12.48;;;8.70;99.90;;;;;;5005062;28;20370;-88
2021/03/20 07:44:23;;;;;;;22.45;11.50;;;8.70;99.90;;;;;;5017161;28;20045;-88
2021/03/20 07:46:49;;;;;;;28.88;12.93;;;8.80;99.90;;;;;;5017405;28;20437;-88
2021/03/20 07:49:28;;;;;;;24.52;13.30;;;8.80;99.90;;;;;;5017098;28;20060;-89
2021/03/20 07:51:56;;;;;;;27.65;13.32;;;8.90;99.90;;;;;;5016870;28;20064;-88
2021/03/20 07:54:27;;;;;;;24.73;12.88;;;8.90;99.90;;;;;;5017242;28;20053;-88
2021/03/20 07:56:53;;;;;;;24.45;12.75;;;8.90;99.90;;;;;;5017078;28;20092;-88
2021/03/20 07:59:25;;;;;;;28.60;14.30;;;8.90;99.90;;;;;;5017253;28;20122;-88
2021/03/20 08:01:54;;;;;;;25.65;14.10;;;8.90;99.90;;;;;;5016909;28;20136;-88
2021/03/20 08:04:41;;;;;;;27.33;14.50;;;9.00;99.90;;;;;;5016910;28;20053;-88
2021/03/20 08:07:08;;;;;;;30.20;14.07;;;9.10;99.90;;;;;;5016534;28;20069;-88
2021/03/20 08:09:35;;;;;;;39.83;16.13;;;9.10;99.90;;;;;;5016562;28;20050;-88
2021/03/20 08:12:11;;;;;;;24.90;13.68;;;9.10;99.90;;;;;;5016762;28;20141;-88
2021/03/20 08:14:40;;;;;;;28.00;14.48;;;9.20;99.90;;;;;;5016639;28;20544;-88
2021/03/20 08:17:06;;;;;;;34.45;16.52;;;9.20;99.90;;;;;;5016583;28;20056;-88
2021/03/20 08:19:33;;;;;;;33.88;17.35;;;9.20;99.90;;;;;;5016565;28;20057;-88
2021/03/20 08:22:31;;;;;;;31.90;16.52;;;9.20;99.90;;;;;;5016324;28;20143;-88
2021/03/20 08:25:11;;;;;;;30.77;15.15;;;9.30;99.90;;;;;;5016682;28;20417;-88
2021/03/20 08:27:43;;;;;;;29.88;16.48;;;9.30;99.90;;;;;;5016618;28;20064;-88
2021/03/20 08:30:28;;;;;;;32.88;15.82;;;9.30;99.90;;;;;;5016668;28;20053;-88
2021/03/20 08:33:38;;;;;;;32.28;15.38;;;9.40;99.90;;;;;;5016652;28;20463;-88
2021/03/20 08:36:07;;;;;;;29.95;15.25;;;9.40;99.90;;;;;;5016439;28;20451;-88
2021/03/20 08:38:53;;;;;;;34.38;17.25;;;9.50;99.90;;;;;;5016388;28;20050;-88
2021/03/20 08:41:24;;;;;;;;;;;9.50;99.90;;;;;;5016525;28;20045;-87
2021/03/20 08:44:03;;;;;;;29.17;15.48;;;9.60;99.90;;;;;;5016410;28;19925;-88
2021/03/20 08:47:02;;;;;;;27.65;14.98;;;9.60;99.90;;;;;;5016010;28;20060;-88
2021/03/20 08:49:43;;;;;;;27.90;15.00;;;9.70;99.90;;;;;;5015743;28;20132;-88
2021/03/20 08:52:16;;;;;;;29.17;13.93;;;9.80;99.90;;;;;;5016080;28;20057;-88
2021/03/20 08:55:08;;;;;;;30.30;15.18;;;9.80;99.90;;;;;;5016256;28;20050;-88
2021/03/20 08:57:40;;;;;;;27.40;12.98;;;9.90;99.90;;;;;;5015845;28;20057;-88
2021/03/20 09:00:13;;;;;;;28.25;13.73;;;10.00;99.90;;;;;;5016097;28;20071;-87
2021/03/20 09:02:40;;;;;;;24.48;12.07;;;10.00;99.90;;;;;;5015994;28;20064;-88
2021/03/20 09:05:19;;;;;;;32.22;15.48;;;10.00;99.90;;;;;;5015868;28;20067;-88
2021/03/20 09:07:48;;;;;;;27.55;14.50;;;10.10;99.90;;;;;;5015745;28;20058;-88
2021/03/20 09:10:17;;;;;;;28.40;14.02;;;10.10;99.90;;;;;;5015668;28;20402;-88
2021/03/20 09:12:47;;;;;;;33.38;14.27;;;10.20;99.90;;;;;;5015877;28;20053;-88
2021/03/20 09:15:17;;;;;;;29.83;15.30;;;10.20;99.90;;;;;;5015757;28;20050;-88
2021/03/20 09:17:44;;;;;;;28.35;14.38;;;10.20;99.90;;;;;;5015159;28;20057;-88
2021/03/20 09:20:17;;;;;;;35.72;15.25;;;10.30;99.90;;;;;;5015731;28;20054;-88
2021/03/20 09:22:45;;;;;;;26.75;14.52;;;10.40;99.90;;;;;;5015312;28;20119;-88
2021/03/20 09:25:18;;;;;;;25.23;13.52;;;10.40;99.90;;;;;;5015399;28;20065;-88
2021/03/20 09:28:02;;;;;;;31.38;14.32;;;10.40;99.90;;;;;;5015345;28;20061;-88
2021/03/20 09:30:30;;;;;;;24.88;12.30;;;10.40;99.90;;;;;;5015351;28;20063;-90
2021/03/20 09:32:57;;;;;;;27.75;13.25;;;10.40;99.90;;;;;;5015666;28;20577;-91
2021/03/20 09:35:25;;;;;;;28.92;13.93;;;10.50;99.90;;;;;;5015860;28;20046;-90
2021/03/20 09:37:52;;;;;;;26.13;13.10;;;10.50;99.90;;;;;;5015477;28;20046;-91
2021/03/20 09:40:41;;;;;;;26.67;12.27;;;10.50;99.90;;;;;;5015210;28;20054;-91
2021/03/20 09:43:40;;;;;;;24.42;12.13;;;10.60;99.90;;;;;;5015380;28;20072;-91
2021/03/20 09:46:44;;;;;;;21.98;11.60;;;10.60;99.90;;;;;;5015712;28;20060;-90
2021/03/20 09:49:39;;;;;;;27.15;14.25;;;10.60;99.90;;;;;;5015319;28;20045;-90
2021/03/20 09:52:07;;;;;;;23.20;12.73;;;10.70;99.90;;;;;;5014993;28;20489;-90
2021/03/20 09:54:41;;;;;;;20.75;11.18;;;10.70;99.90;;;;;;5015364;28;20050;-91
2021/03/20 09:57:42;;;;;;;21.70;11.77;;;10.80;99.90;;;;;;5015458;28;20054;-90
2021/03/20 10:00:14;;;;;;;21.63;11.60;;;10.90;99.90;;;;;;5015013;28;20054;-90
2021/03/20 10:02:53;;;;;;;20.27;11.65;;;11.00;99.90;;;;;;5015396;28;20053;-90
2021/03/20 10:05:27;;;;;;;22.10;10.40;;;11.10;99.90;;;;;;5015178;28;20061;-90
2021/03/20 10:07:57;;;;;;;20.52;10.63;;;11.20;99.90;;;;;;5015072;28;20042;-90
2021/03/20 10:10:46;;;;;;;25.33;13.13;;;11.20;99.90;;;;;;5015067;28;20451;-91
2021/03/20 10:13:18;;;;;;;19.88;9.82;;;11.30;99.90;;;;;;5014961;28;20054;-90
2021/03/20 10:15:57;;;;;;;19.92;10.07;;;11.40;99.90;;;;;;5015002;28;20049;-90
2021/03/20 10:18:32;;;;;;;18.75;10.02;;;11.30;99.90;;;;;;5015172;28;20534;-90
2021/03/20 10:21:19;;;;;;;;;;;11.30;99.90;;;;;;5015739;28;20440;-90
2021/03/20 10:23:48;;;;;;;16.42;8.98;;;11.40;99.90;;;;;;5015122;28;19976;-90
2021/03/20 10:26:27;;;;;;;18.65;8.98;;;11.40;99.90;;;;;;5015068;28;20414;-90
2021/03/20 10:28:55;;;;;;;17.48;9.05;;;11.40;99.90;;;;;;5015069;28;20076;-90
2021/03/20 10:31:23;;;;;;;16.90;9.23;;;11.40;99.90;;;;;;5018860;28;20045;-90
2021/03/20 10:33:50;;;;;;;20.10;10.20;;;11.40;99.90;;;;;;5019018;28;20062;-90
2021/03/20 10:36:28;;;;;;;16.85;9.25;;;11.40;99.90;;;;;;5019142;28;20046;-90
2021/03/20 10:38:55;;;;;;;19.90;8.60;;;11.30;99.90;;;;;;5019135;28;20148;-91
2021/03/20 10:41:23;;;;;;;18.35;10.00;;;11.20;99.90;;;;;;5018565;28;20061;-90
2021/03/20 10:43:51;;;;;;;20.73;8.48;;;11.30;99.90;;;;;;5018945;28;20049;-90
2021/03/20 10:46:18;;;;;;;14.68;9.07;;;11.30;99.90;;;;;;5018608;28;20064;-90
2021/03/20 10:48:46;;;;;;;22.42;8.45;;;11.50;99.90;;;;;;5018792;28;20351;-90
2021/03/20 10:51:14;;;;;;;10.73;7.40;;;11.60;99.90;;;;;;5018452;28;20060;-90
2021/03/20 10:53:48;;;;;;;15.40;7.85;;;11.70;99.90;;;;;;5018632;28;20133;-89
2021/03/20 10:56:29;;;;;;;15.45;8.30;;;11.80;99.90;;;;;;5018114;28;20140;-90
2021/03/20 10:58:56;;;;;;;15.23;8.30;;;12.00;99.90;;;;;;5018629;28;20458;-90
2021/03/20 11:01:30;;;;;;;14.88;8.20;;;12.00;99.90;;;;;;5018510;28;20200;-90
2021/03/20 11:03:57;;;;;;;15.27;7.27;;;12.10;99.90;;;;;;5018366;28;20054;-89
2021/03/20 11:06:24;;;;;;;10.55;6.18;;;12.00;99.90;;;;;;5018582;28;20068;-89
2021/03/20 11:09:03;;;;;;;9.43;5.78;;;11.90;99.90;;;;;;5018330;28;20413;-90
2021/03/20 11:11:30;;;;;;;13.57;6.47;;;11.90;99.90;;;;;;5018087;28;20058;-89
2021/03/20 11:14:03;;;;;;;10.25;5.95;;;11.80;99.90;;;;;;5018129;28;20056;-89
2021/03/20 11:16:30;;;;;;;12.75;6.40;;;11.90;99.90;;;;;;5018242;28;20426;-90
2021/03/20 11:19:04;;;;;;;13.25;7.18;;;11.90;99.90;;;;;;5018480;28;20041;-90
2021/03/20 11:21:32;;;;;;;13.02;6.90;;;11.90;99.90;;;;;;5017851;28;20050;-90
2021/03/20 11:24:00;;;;;;;13.75;7.82;;;11.90;99.90;;;;;;5018056;28;20104;-90
2021/03/20 11:26:36;;;;;;;10.80;6.25;;;11.90;99.90;;;;;;5018378;28;20054;-91
2021/03/20 11:29:04;;;;;;;11.60;6.65;;;12.00;99.90;;;;;;5018062;28;20053;-91
2021/03/20 11:31:44;;;;;;;13.55;6.82;;;12.00;99.90;;;;;;5017577;28;20050;-89
2021/03/20 11:34:14;;;;;;;9.60;6.47;;;12.10;99.90;;;;;;5017861;28;20447;-86
2021/03/20 11:36:40;;;;;;;11.27;6.03;;;12.00;99.90;;;;;;5017533;28;20685;-90
2021/03/20 11:39:09;;;;;;;10.45;6.60;;;11.90;99.90;;;;;;5017383;28;20057;-87
2021/03/20 11:41:36;;;;;;;11.63;5.75;;;12.00;99.90;;;;;;5016790;28;20123;-87
2021/03/20 11:44:04;;;;;;;12.43;6.45;;;11.90;99.90;;;;;;5017289;28;20061;-86
2021/03/20 11:46:33;;;;;;;11.43;6.47;;;11.90;99.90;;;;;;5017261;28;20057;-86
2021/03/20 11:49:00;;;;;;;8.90;5.65;;;11.80;99.90;;;;;;5017179;28;20042;-86
2021/03/20 11:51:29;;;;;;;10.07;6.13;;;11.80;99.90;;;;;;5017266;28;20050;-87
2021/03/20 11:53:58;;;;;;;9.77;5.55;;;11.70;99.90;;;;;;5016864;28;20053;-86
2021/03/20 11:56:25;;;;;;;9.93;5.95;;;11.70;99.90;;;;;;5015409;28;20129;-86
2021/03/20 11:58:53;;;;;;;10.65;4.25;;;11.60;99.90;;;;;;5016658;28;20050;-87
2021/03/20 12:01:28;;;;;;;7.65;6.05;;;11.60;99.90;;;;;;5017020;28;20045;-86
2021/03/20 12:03:55;;;;;;;8.48;4.93;;;11.50;99.90;;;;;;5016830;28;20529;-87
2021/03/20 12:06:24;;;;;;;8.25;4.72;;;11.50;99.90;;;;;;5017064;28;20050;-84
2021/03/20 12:08:53;;;;;;;11.00;6.18;;;11.60;99.90;;;;;;5017124;28;20054;-86
2021/03/20 12:11:20;;;;;;;10.65;5.28;;;11.60;99.90;;;;;;5017030;28;20051;-86
2021/03/20 12:13:49;;;;;;;10.00;5.28;;;11.60;99.90;;;;;;5016704;28;20096;-86
2021/03/20 12:16:25;;;;;;;10.50;5.38;;;11.60;99.90;;;;;;5016694;28;20046;-86
2021/03/20 12:18:52;;;;;;;12.45;7.22;;;11.60;99.90;;;;;;5016675;28;20509;-86
2021/03/20 12:21:18;;;;;;;9.18;6.32;;;11.40;99.90;;;;;;5016306;28;20061;-86
2021/03/20 12:23:55;;;;;;;11.30;7.22;;;11.40;99.90;;;;;;5016741;28;20054;-88
2021/03/20 12:26:29;;;;;;;14.05;7.65;;;11.30;99.90;;;;;;5016266;28;20124;-86
2021/03/20 12:29:08;;;;;;;13.18;7.00;;;11.30;99.90;;;;;;5016470;28;20056;-87
2021/03/20 12:31:36;;;;;;;16.63;9.95;;;13.30;99.90;;;;;;5017739;28;20049;-96
2021/03/20 12:34:29;;;;;;;16.38;8.13;;;11.10;99.90;;;;;;5027064;28;20049;-92
2021/03/20 12:37:11;;;;;;;19.05;9.63;;;11.30;99.90;;;;;;5024333;28;20083;-89
2021/03/20 12:39:38;;;;;;;16.45;7.75;;;11.10;99.90;;;;;;5018961;28;20111;-85
2021/03/20 12:42:06;;;;;;;16.17;8.27;;;11.10;99.90;;;;;;5016129;28;20057;-85
2021/03/20 12:44:40;;;;;;;18.02;9.82;;;11.10;99.90;;;;;;5015960;28;20451;-84
2021/03/20 12:47:07;;;;;;;13.63;7.63;;;11.00;99.90;;;;;;5016082;28;20502;-85
2021/03/20 12:49:36;;;;;;;15.25;6.97;;;11.00;99.90;;;;;;5015848;28;20045;-84
2021/03/20 12:52:04;;;;;;;9.93;5.28;;;11.00;99.90;;;;;;5014725;28;20488;-86
2021/03/20 12:54:32;;;;;;;10.38;6.03;;;11.00;99.90;;;;;;5015595;28;20120;-84
2021/03/20 12:56:59;;;;;;;12.02;6.13;;;11.00;99.90;;;;;;5016097;28;20061;-84
2021/03/20 12:59:27;;;;;;;11.20;6.43;;;11.00;99.90;;;;;;5016002;28;20041;-85
2021/03/20 13:01:53;;;;;;;9.43;5.75;;;11.00;99.90;;;;;;5015971;28;20053;-84
2021/03/20 13:04:21;;;;;;;13.63;6.68;;;11.00;99.90;;;;;;5015953;28;20060;-85